sensor_id;sensor_type;location;lat;lon;timestamp;pressure;altitude;pressure_sealevel;temperature;humidity
63622;BME280;49770;47.544;19.074;2022-10-17T06:01:58;101858.16;;;7.73;100.00
63622;BME280;49770;47.544;19.074;2022-10-17T06:05:01;101872.19;;;7.78;100.00
63622;BME280;49770;47.544;19.074;2022-10-17T06:08:04;101869.44;;;7.86;100.00
63622;BME280;49770;47.544;19.074;2022-10-17T06:11:08;101869.34;;;7.95;100.00
63622;BME280;49770;47.544;19.074;2022-10-17T06:14:12;101875.38;;;8.02;100.00
63622;BME280;49770;47.544;19.074;2022-10-17T06:17:15;101877.81;;;8.16;100.00
63622;BME280;49770;47.544;19.074;2022-10-17T06:20:18;101875.91;;;8.26;100.00
63622;BME280;49770;47.544;19.074;2022-10-17T06:23:21;101886.38;;;8.33;100.00
63622;BME280;49770;47.544;19.074;2022-10-17T06:26:26;101893.22;;;8.44;100.00
63622;BME280;49770;47.544;19.074;2022-10-17T06:29:33;101898.41;;;8.55;100.00
63622;BME280;49770;47.544;19.074;2022-10-17T06:32:35;101900.87;;;8.64;100.00
63622;BME280;49770;47.544;19.074;2022-10-17T06:39:05;101923.47;;;8.84;100.00
63622;BME280;49770;47.544;19.074;2022-10-17T06:42:08;101918.84;;;8.97;100.00
63622;BME280;49770;47.544;19.074;2022-10-17T06:45:11;101925.59;;;9.13;100.00
63622;BME280;49770;47.544;19.074;2022-10-17T06:48:14;101921.78;;;9.28;100.00
63622;BME280;49770;47.544;19.074;2022-10-17T06:51:17;101919.50;;;9.54;100.00
63622;BME280;49770;47.544;19.074;2022-10-17T08:25:30;101964.00;;;25.00;40.29
63622;BME280;49770;47.544;19.074;2022-10-17T08:35:26;101963.78;;;25.56;36.82
63622;BME280;49770;47.544;19.074;2022-10-17T08:46:03;101966.84;;;22.49;42.26
63622;BME280;49770;47.544;19.074;2022-10-17T08:49:15;101963.94;;;20.86;48.38
63622;BME280;49770;47.544;19.074;2022-10-17T08:56:23;101968.66;;;19.71;52.12
63622;BME280;49770;47.544;19.074;2022-10-17T08:59:51;101971.84;;;19.34;55.66
63622;BME280;49770;47.544;19.074;2022-10-17T09:06:44;101962.47;;;18.80;55.73
63622;BME280;49770;47.544;19.074;2022-10-17T09:13:24;101962.97;;;18.56;54.17
63622;BME280;49770;47.544;19.074;2022-10-17T09:20:22;101957.19;;;18.79;54.88
63622;BME280;49770;47.544;19.074;2022-10-17T09:23:44;101959.81;;;18.95;54.77
63622;BME280;49770;47.544;19.074;2022-10-17T09:26:49;101966.38;;;19.36;53.81
63622;BME280;49770;47.544;19.074;2022-10-17T09:33:46;101966.84;;;20.01;51.91
63622;BME280;49770;47.544;19.074;2022-10-17T09:36:57;101956.69;;;20.46;50.55
63622;BME280;49770;47.544;19.074;2022-10-17T09:40:01;101957.50;;;20.34;50.49
63622;BME280;49770;47.544;19.074;2022-10-17T09:43:06;101958.28;;;20.77;49.41
63622;BME280;49770;47.544;19.074;2022-10-17T09:46:25;101960.72;;;21.20;49.40
63622;BME280;49770;47.544;19.074;2022-10-17T09:49:39;101955.63;;;21.54;48.04
63622;BME280;49770;47.544;19.074;2022-10-17T09:52:43;101954.44;;;21.59;48.55
63622;BME280;49770;47.544;19.074;2022-10-17T09:55:54;101953.56;;;21.84;46.87
63622;BME280;49770;47.544;19.074;2022-10-17T09:58:58;101951.13;;;22.05;47.37
63622;BME280;49770;47.544;19.074;2022-10-17T10:02:19;101959.34;;;22.28;47.29
63622;BME280;49770;47.544;19.074;2022-10-17T10:05:22;101947.69;;;22.52;46.32
63622;BME280;49770;47.544;19.074;2022-10-17T10:08:32;101947.06;;;22.84;44.90
63622;BME280;49770;47.544;19.074;2022-10-17T10:11:54;101956.28;;;23.52;42.22
63622;BME280;49770;47.544;19.074;2022-10-17T10:14:57;101942.28;;;23.47;40.26
63622;BME280;49770;47.544;19.074;2022-10-17T10:18:01;101941.94;;;23.15;40.30
63622;BME280;49770;47.544;19.074;2022-10-17T10:21:07;101943.22;;;23.68;41.15
63622;BME280;49770;47.544;19.074;2022-10-17T10:24:12;101939.56;;;23.47;41.05
63622;BME280;49770;47.544;19.074;2022-10-17T10:27:16;101942.63;;;23.31;39.77
63622;BME280;49770;47.544;19.074;2022-10-17T10:30:27;101939.53;;;23.58;39.65
63622;BME280;49770;47.544;19.074;2022-10-17T10:33:33;101933.31;;;24.02;36.28
63622;BME280;49770;47.544;19.074;2022-10-17T10:36:45;101936.78;;;26.35;33.40
63622;BME280;49770;47.544;19.074;2022-10-17T10:39:55;101930.38;;;27.61;31.05
63622;BME280;49770;47.544;19.074;2022-10-17T10:43:00;101929.66;;;27.21;31.23
63622;BME280;49770;47.544;19.074;2022-10-17T10:46:46;101925.94;;;25.84;33.38
63622;BME280;49770;47.544;19.074;2022-10-17T10:54:10;101922.28;;;24.38;35.74
63622;BME280;49770;47.544;19.074;2022-10-17T11:15:27;101919.94;;;24.33;35.63
63622;BME280;49770;47.544;19.074;2022-10-17T11:19:02;101915.97;;;22.90;38.59
63622;BME280;49770;47.544;19.074;2022-10-17T11:22:26;101909.62;;;23.25;38.57
63622;BME280;49770;47.544;19.074;2022-10-17T11:25:33;101906.16;;;22.29;39.32
63622;BME280;49770;47.544;19.074;2022-10-17T11:28:37;101903.56;;;22.27;39.95
63622;BME280;49770;47.544;19.074;2022-10-17T11:38:18;101894.16;;;21.84;41.35
63622;BME280;49770;47.544;19.074;2022-10-17T11:41:43;101886.19;;;21.70;41.42
63622;BME280;49770;47.544;19.074;2022-10-17T11:44:51;101894.78;;;21.88;41.50
63622;BME280;49770;47.544;19.074;2022-10-17T11:51:50;101890.81;;;22.05;40.86
63622;BME280;49770;47.544;19.074;2022-10-17T11:55:16;101881.66;;;21.70;40.35
63622;BME280;49770;47.544;19.074;2022-10-17T11:58:32;101874.31;;;21.59;41.44
63622;BME280;49770;47.544;19.074;2022-10-17T12:01:45;101884.34;;;21.57;42.27
63622;BME280;49770;47.544;19.074;2022-10-17T12:04:58;101884.66;;;21.78;41.55
63622;BME280;49770;47.544;19.074;2022-10-17T13:53:58;101820.41;;;20.42;40.75
63622;BME280;49770;47.544;19.074;2022-10-17T14:23:41;101801.44;;;20.44;42.49
63622;BME280;49770;47.544;19.074;2022-10-17T14:41:58;101797.50;;;20.09;46.68
63622;BME280;49770;47.544;19.074;2022-10-17T14:48:52;101801.78;;;19.99;43.58
63622;BME280;49770;47.544;19.074;2022-10-17T14:55:25;101795.44;;;19.85;43.21
63622;BME280;49770;47.544;19.074;2022-10-17T14:58:30;101800.16;;;19.96;42.96
63622;BME280;49770;47.544;19.074;2022-10-17T15:01:33;101801.56;;;19.74;43.75
63622;BME280;49770;47.544;19.074;2022-10-17T15:04:36;101798.16;;;19.58;45.70
63622;BME280;49770;47.544;19.074;2022-10-17T15:07:41;101799.34;;;19.39;45.49
63622;BME280;49770;47.544;19.074;2022-10-17T15:10:45;101801.06;;;19.40;46.28
63622;BME280;49770;47.544;19.074;2022-10-17T15:13:48;101801.59;;;19.32;46.07
63622;BME280;49770;47.544;19.074;2022-10-17T15:16:50;101801.97;;;19.11;48.77
63622;BME280;49770;47.544;19.074;2022-10-17T15:19:53;101803.56;;;18.85;48.24
63622;BME280;49770;47.544;19.074;2022-10-17T15:22:58;101813.44;;;18.70;48.29
63622;BME280;49770;47.544;19.074;2022-10-17T15:26:01;101811.12;;;18.64;49.67
